Time;durP1;ratioP1;P1;durP2;ratioP2;P2;SDS_P1;SDS_P2;PMS_P1;PMS_P2;Temp;Humidity;BMP_temperature;BMP_pressure;BME280_temperature;BME280_humidity;BME280_pressure;Samples;Min_cycle;Max_cycle;Signal;HPM_P1;HPM_P2
2023/01/07 00:00:35;;;;;;;5.90;3.17;;;;;;;;;;6220363;28;20268;-89
2023/01/07 00:03:42;;;;;;;5.47;3.97;;;;;;;;;;6237327;28;20571;-91
2023/01/07 00:06:51;;;;;;;6.27;3.80;;;;;;;;;;6239180;28;20296;-88
2023/01/07 00:10:01;;;;;;;3.90;3.60;;;;;;;;;;6226057;28;20275;-89
2023/01/07 00:13:12;;;;;;;3.60;3.27;;;;;;;;;;6208539;28;20279;-89
2023/01/07 00:16:20;;;;;;;4.77;3.13;;;;;;;;;;6221155;28;20599;-88
2023/01/07 00:19:28;;;;;;;7.57;3.80;;;;;;;;;;6204573;28;20271;-89
2023/01/07 00:22:35;;;;;;;4.73;4.00;;;;;;;;;;6226249;28;20452;-89
2023/01/07 00:25:43;;;;;;;5.73;3.73;;;;;;;;;;6205390;28;20279;-90
2023/01/07 00:28:51;;;;;;;3.43;3.23;;;;;;;;;;6224969;28;20272;-89
2023/01/07 00:32:00;;;;;;;6.00;3.90;;;;;;;;;;6236723;28;20231;-87
2023/01/07 00:35:21;;;;;;;4.30;4.00;;;;;;;;;;6220258;28;20227;-89
2023/01/07 00:38:29;;;;;;;6.67;3.80;;;;;;;;;;6252645;28;20270;-89
2023/01/07 00:41:37;;;;;;;3.80;3.50;;;;;;;;;;6236339;28;20311;-89
2023/01/07 00:44:43;;;;;;;4.77;3.47;;;;;;;;;;6236759;28;20221;-90
2023/01/07 00:47:52;;;;;;;3.93;3.37;;;;;;;;;;6220776;28;20239;-89
2023/01/07 00:50:59;;;;;;;3.73;3.33;;;;;;;;;;6221286;28;20224;-89
2023/01/07 00:54:06;;;;;;;4.90;4.07;;;;;;;;;;6233708;28;20225;-89
2023/01/07 00:57:15;;;;;;;5.40;3.07;;;;;;;;;;6219685;28;20608;-88
2023/01/07 01:00:24;;;;;;;2.70;2.60;;;;;;;;;;6211691;28;20273;-90
2023/01/07 01:03:33;;;;;;;3.20;2.90;;;;;;;;;;6237409;28;20305;-89
2023/01/07 01:06:40;;;;;;;5.03;3.70;;;;;;;;;;6200804;28;20276;-90
2023/01/07 01:09:47;;;;;;;3.33;3.13;;;;;;;;;;6185032;28;20267;-89
2023/01/07 01:12:56;;;;;;;4.77;3.17;;;;;;;;;;6203342;28;20281;-89
2023/01/07 01:16:07;;;;;;;4.37;3.60;;;;;;;;;;6219163;28;20279;-89
2023/01/07 01:19:17;;;;;;;4.60;2.27;;;;;;;;;;6212679;28;20273;-89
2023/01/07 01:22:23;;;;;;;4.47;3.70;;;;;;;;;;6186672;28;20281;-89
2023/01/07 01:25:30;;;;;;;3.33;3.03;;;;;;;;;;6204269;28;20278;-90
2023/01/07 01:28:38;;;;;;;4.13;3.73;;;;;;;;;;6186480;28;20587;-89
2023/01/07 01:31:47;;;;;;;3.57;3.23;;;;;;;;;;6215586;28;20576;-90
2023/01/07 01:34:54;;;;;;;2.47;2.27;;;;;;;;;;6168538;28;20297;-89
2023/01/07 01:38:02;;;;;;;4.33;2.53;;;;;;;;;;6183704;28;20305;-89
2023/01/07 01:41:10;;;;;;;4.73;3.63;;;;;;;;;;6185401;28;20281;-89
2023/01/07 01:44:38;;;;;;;4.63;3.07;;;;;;;;;;6219466;28;20277;-90
2023/01/07 01:47:52;;;;;;;4.80;3.60;;;;;;;;;;6185665;28;20272;-90
2023/01/07 01:51:00;;;;;;;6.63;3.57;;;;;;;;;;6204131;28;20284;-90
2023/01/07 01:54:11;;;;;;;4.73;3.60;;;;;;;;;;6200029;28;20280;-90
2023/01/07 01:57:20;;;;;;;4.10;3.60;;;;;;;;;;6225748;28;20278;-90
2023/01/07 02:00:33;;;;;;;4.10;3.67;;;;;;;;;;6223286;28;20286;-89
2023/01/07 02:03:41;;;;;;;3.77;3.50;;;;;;;;;;6212283;28;20292;-89
2023/01/07 02:06:57;;;;;;;3.83;3.50;;;;;;;;;;6218611;28;20360;-91
2023/01/07 02:10:14;;;;;;;4.40;4.00;;;;;;;;;;6222988;28;20283;-90
2023/01/07 02:13:33;;;;;;;4.30;3.37;;;;;;;;;;6223005;28;20269;-90
2023/01/07 02:16:49;;;;;;;5.63;3.73;;;;;;;;;;6206513;28;20280;-90
2023/01/07 02:20:31;;;;;;;6.17;3.67;;;;;;;;;;6222964;28;20281;-89
2023/01/07 02:24:03;;;;;;;4.03;3.50;;;;;;;;;;6214266;28;20291;-89
2023/01/07 02:27:19;;;;;;;3.40;2.90;;;;;;;;;;6239420;28;20264;-91
2023/01/07 02:31:08;;;;;;;4.90;3.33;;;;;;;;;;6206101;28;20569;-91
2023/01/07 02:34:24;;;;;;;8.33;3.57;;;;;;;;;;6206856;28;20277;-89
2023/01/07 02:37:37;;;;;;;4.07;3.30;;;;;;;;;;6221835;28;20307;-91
2023/01/07 02:40:51;;;;;;;4.33;3.77;;;;;;;;;;6190594;28;20277;-90
2023/01/07 02:44:04;;;;;;;6.43;3.60;;;;;;;;;;6191183;28;20274;-88
2023/01/07 02:47:20;;;;;;;4.30;3.83;;;;;;;;;;6222664;28;20277;-89
2023/01/07 02:50:31;;;;;;;3.30;2.00;;;;;;;;;;6223066;28;20278;-88
2023/01/07 02:53:38;;;;;;;3.97;3.20;;;;;;;;;;6222597;28;20276;-89
2023/01/07 02:57:01;;;;;;;4.90;2.80;;;;;;;;;;6206465;28;20272;-90
2023/01/07 03:00:24;;;;;;;4.57;3.43;;;;;;;;;;6206475;28;20282;-90
2023/01/07 03:03:41;;;;;;;2.13;2.03;;;;;;;;;;6237974;28;20301;-89
2023/01/07 03:06:59;;;;;;;4.67;3.50;;;;;;;;;;6222366;28;20281;-91
2023/01/07 03:10:13;;;;;;;3.63;2.33;;;;;;;;;;6237982;28;20277;-89
2023/01/07 03:13:24;;;;;;;3.40;3.07;;;;;;;;;;6228473;28;20208;-91
2023/01/07 03:16:34;;;;;;;3.80;3.53;;;;;;;;;;6235366;28;20484;-90
2023/01/07 03:19:43;;;;;;;3.80;3.50;;;;;;;;;;6247511;28;20303;-89
2023/01/07 03:22:51;;;;;;;4.30;3.03;;;;;;;;;;6216093;28;20266;-90
2023/01/07 03:26:01;;;;;;;3.07;2.87;;;;;;;;;;6205514;28;20277;-90
2023/01/07 03:29:14;;;;;;;2.37;2.27;;;;;;;;;;6237728;28;20277;-90
2023/01/07 03:32:27;;;;;;;1.80;1.80;;;;;;;;;;6188905;28;20309;-91
2023/01/07 03:35:34;;;;;;;5.13;3.60;;;;;;;;;;6237286;28;20273;-90
2023/01/07 03:38:44;;;;;;;3.37;3.07;;;;;;;;;;6189237;28;20288;-90
2023/01/07 03:45:22;;;;;;;2.87;2.77;;;;;;;;;;6220799;28;20274;-91
2023/01/07 03:48:29;;;;;;;6.00;3.67;;;;;;;;;;6221823;28;20275;-91
2023/01/07 03:51:36;;;;;;;3.77;3.43;;;;;;;;;;6237425;28;20266;-91
2023/01/07 03:54:46;;;;;;;3.60;3.40;;;;;;;;;;6220875;28;20389;-91
2023/01/07 03:57:57;;;;;;;3.50;3.17;;;;;;;;;;6237196;28;20280;-91
2023/01/07 04:01:04;;;;;;;4.03;3.47;;;;;;;;;;6220773;28;20349;-90
2023/01/07 04:04:12;;;;;;;3.93;3.67;;;;;;;;;;6188805;28;20305;-90
2023/01/07 04:07:20;;;;;;;3.50;3.30;;;;;;;;;;6236211;28;20279;-91
2023/01/07 04:10:30;;;;;;;3.83;3.20;;;;;;;;;;6220703;28;20270;-91
2023/01/07 04:13:36;;;;;;;3.73;3.53;;;;;;;;;;6220942;28;20277;-90
2023/01/07 04:16:42;;;;;;;3.83;3.53;;;;;;;;;;6220455;28;20278;-91
2023/01/07 04:19:50;;;;;;;4.40;4.00;;;;;;;;;;6204723;28;20612;-90
2023/01/07 04:22:59;;;;;;;5.07;3.47;;;;;;;;;;6207629;28;20325;-90
2023/01/07 04:26:08;;;;;;;8.87;4.20;;;;;;;;;;6203523;28;20222;-90
2023/01/07 04:29:16;;;;;;;4.43;3.50;;;;;;;;;;6205814;28;20356;-90
2023/01/07 04:32:26;;;;;;;3.50;3.20;;;;;;;;;;6236742;28;20324;-90
2023/01/07 04:35:35;;;;;;;3.80;3.50;;;;;;;;;;6207963;28;20273;-90
2023/01/07 04:38:42;;;;;;;7.73;3.80;;;;;;;;;;6220571;28;20292;-90
2023/01/07 04:41:52;;;;;;;4.20;3.90;;;;;;;;;;6227454;28;20259;-89
2023/01/07 04:44:59;;;;;;;5.60;4.03;;;;;;;;;;6235183;28;20276;-90
2023/01/07 04:48:07;;;;;;;4.83;3.63;;;;;;;;;;6226363;28;20302;-90
2023/01/07 04:51:13;;;;;;;4.40;3.53;;;;;;;;;;6249239;28;20279;-90
2023/01/07 04:54:21;;;;;;;4.83;3.40;;;;;;;;;;6228851;28;20442;-89
2023/01/07 04:57:32;;;;;;;4.13;3.37;;;;;;;;;;6233855;28;20236;-90
2023/01/07 05:00:40;;;;;;;5.43;3.80;;;;;;;;;;6193402;28;20293;-90
2023/01/07 05:03:46;;;;;;;7.20;3.70;;;;;;;;;;6224906;28;20324;-90
2023/01/07 05:06:54;;;;;;;6.03;3.93;;;;;;;;;;6224847;28;20277;-90
2023/01/07 05:10:04;;;;;;;5.33;3.90;;;;;;;;;;6224600;28;20271;-90
2023/01/07 05:13:17;;;;;;;4.33;3.27;;;;;;;;;;6225474;28;20277;-89
2023/01/07 05:16:26;;;;;;;4.73;3.77;;;;;;;;;;6240576;28;20494;-91
2023/01/07 05:19:38;;;;;;;3.57;3.37;;;;;;;;;;6209387;28;20478;-89
2023/01/07 05:22:47;;;;;;;4.57;4.20;;;;;;;;;;6239868;28;20277;-89
2023/01/07 05:25:56;;;;;;;4.10;3.70;;;;;;;;;;6208425;28;20285;-89
2023/01/07 05:29:05;;;;;;;5.83;3.73;;;;;;;;;;6224207;28;20266;-89
2023/01/07 05:32:13;;;;;;;3.77;3.20;;;;;;;;;;6223994;28;20273;-89
2023/01/07 05:35:19;;;;;;;3.93;3.73;;;;;;;;;;6239328;28;20233;-90
2023/01/07 05:38:25;;;;;;;4.40;3.63;;;;;;;;;;6226593;28;20270;-91
2023/01/07 05:41:31;;;;;;;3.83;3.53;;;;;;;;;;6240020;28;20298;-88
2023/01/07 05:44:41;;;;;;;8.00;4.20;;;;;;;;;;6239971;28;20571;-90
2023/01/07 05:47:47;;;;;;;4.30;4.00;;;;;;;;;;6220718;28;20282;-89
2023/01/07 05:50:55;;;;;;;5.60;4.10;;;;;;;;;;6224237;28;20579;-91
2023/01/07 05:54:00;;;;;;;3.83;3.53;;;;;;;;;;6240284;28;20269;-90
2023/01/07 05:57:06;;;;;;;9.23;4.13;;;;;;;;;;6206520;28;20562;-91
2023/01/07 06:00:15;;;;;;;6.37;3.97;;;;;;;;;;6223942;28;20282;-91
2023/01/07 06:03:21;;;;;;;5.57;4.30;;;;;;;;;;6225118;28;20274;-91
2023/01/07 06:06:27;;;;;;;4.47;4.03;;;;;;;;;;6238605;28;20242;-89
2023/01/07 06:09:32;;;;;;;4.17;3.90;;;;;;;;;;6237088;28;20254;-90
2023/01/07 06:12:39;;;;;;;3.17;2.97;;;;;;;;;;6223958;28;20350;-90
2023/01/07 06:15:47;;;;;;;4.40;4.20;;;;;;;;;;6223297;28;20278;-91
2023/01/07 06:18:52;;;;;;;9.33;4.23;;;;;;;;;;6244598;28;20254;-91
2023/01/07 06:21:58;;;;;;;3.87;3.57;;;;;;;;;;6224738;28;20470;-90
2023/01/07 06:25:05;;;;;;;6.97;4.50;;;;;;;;;;6239466;28;20273;-90
2023/01/07 06:28:12;;;;;;;6.13;4.03;;;;;;;;;;6207398;28;20550;-90
2023/01/07 06:31:20;;;;;;;5.87;4.17;;;;;;;;;;6205197;28;20280;-91
2023/01/07 06:34:26;;;;;;;5.97;4.67;;;;;;;;;;6239553;28;20275;-90
2023/01/07 06:37:31;;;;;;;5.10;4.53;;;;;;;;;;6224558;28;20275;-91
2023/01/07 06:40:38;;;;;;;6.97;4.07;;;;;;;;;;6241634;28;20295;-89
2023/01/07 06:43:45;;;;;;;5.20;4.70;;;;;;;;;;6247097;28;20252;-90
2023/01/07 06:46:52;;;;;;;4.30;3.97;;;;;;;;;;6218305;28;20298;-90
2023/01/07 06:49:58;;;;;;;5.43;4.77;;;;;;;;;;6223233;28;20264;-90
2023/01/07 06:53:04;;;;;;;5.90;5.00;;;;;;;;;;6206726;28;20274;-90
2023/01/07 06:56:11;;;;;;;5.20;4.57;;;;;;;;;;6238387;28;20580;-89
2023/01/07 06:59:16;;;;;;;5.33;4.47;;;;;;;;;;6238752;28;20332;-91
2023/01/07 07:02:25;;;;;;;4.53;4.13;;;;;;;;;;6239064;28;20319;-90
2023/01/07 07:05:31;;;;;;;5.30;4.70;;;;;;;;;;6221648;28;20312;-90
2023/01/07 07:08:37;;;;;;;4.53;4.20;;;;;;;;;;6221867;28;20262;-90
2023/01/07 07:11:42;;;;;;;5.57;4.40;;;;;;;;;;6205752;28;20552;-91
2023/01/07 07:14:48;;;;;;;5.03;4.53;;;;;;;;;;6222222;28;20271;-90
2023/01/07 07:17:55;;;;;;;2.50;2.37;;;;;;;;;;6238783;28;20260;-90
2023/01/07 07:21:01;;;;;;;5.33;4.83;;;;;;;;;;6238837;28;20283;-90
2023/01/07 07:24:08;;;;;;;5.80;5.10;;;;;;;;;;6222051;28;20271;-91
2023/01/07 07:27:14;;;;;;;6.13;4.57;;;;;;;;;;6245235;28;20558;-90
2023/01/07 07:30:20;;;;;;;4.17;3.63;;;;;;;;;;6244741;28;20315;-91
2023/01/07 07:33:47;;;;;;;4.43;4.03;;;;;;;;;;6237734;28;20280;-90
2023/01/07 07:36:53;;;;;;;4.20;3.93;;;;;;;;;;6237878;28;20272;-90
2023/01/07 07:39:58;;;;;;;4.73;4.33;;;;;;;;;;6221107;28;20271;-91
2023/01/07 07:43:05;;;;;;;8.50;4.60;;;;;;;;;;6238539;28;20552;-91
2023/01/07 07:46:16;;;;;;;4.03;3.67;;;;;;;;;;6238724;28;20294;-90
2023/01/07 07:49:24;;;;;;;6.90;4.37;;;;;;;;;;6243712;28;20263;-89
2023/01/07 07:52:29;;;;;;;4.43;4.13;;;;;;;;;;6238102;28;20272;-91
2023/01/07 07:55:36;;;;;;;4.60;4.30;;;;;;;;;;6252724;28;20250;-90
2023/01/07 07:58:43;;;;;;;7.03;4.20;;;;;;;;;;6224117;28;20280;-90
2023/01/07 08:01:49;;;;;;;5.83;5.07;;;;;;;;;;6222224;28;20298;-91
2023/01/07 08:04:56;;;;;;;5.60;4.10;;;;;;;;;;6223512;28;20507;-90
2023/01/07 08:08:08;;;;;;;6.40;4.40;;;;;;;;;;6221784;28;20268;-89
2023/01/07 08:11:14;;;;;;;4.07;3.77;;;;;;;;;;6243232;28;20280;-91
2023/01/07 08:14:20;;;;;;;2.37;2.30;;;;;;;;;;6222298;28;20283;-91
2023/01/07 08:17:26;;;;;;;6.07;4.63;;;;;;;;;;6222009;28;20271;-91
2023/01/07 08:20:33;;;;;;;5.43;4.87;;;;;;;;;;6237141;28;20271;-91
2023/01/07 08:23:40;;;;;;;7.23;5.20;;;;;;;;;;6237292;28;20271;-93
2023/01/07 08:26:45;;;;;;;4.90;4.20;;;;;;;;;;6238329;28;20353;-92
2023/01/07 08:29:51;;;;;;;5.10;4.50;;;;;;;;;;6220822;28;20266;-91
2023/01/07 08:32:57;;;;;;;6.13;4.00;;;;;;;;;;6222135;28;20263;-89
2023/01/07 08:36:07;;;;;;;4.77;4.20;;;;;;;;;;6226621;28;20270;-92
2023/01/07 08:39:27;;;;;;;4.67;4.20;;;;;;;;;;6243996;28;20264;-90
2023/01/07 08:42:33;;;;;;;5.77;5.10;;;;;;;;;;6223663;28;20280;-92
2023/01/07 08:45:39;;;;;;;4.67;4.13;;;;;;;;;;6239789;28;20259;-92
2023/01/07 08:48:46;;;;;;;6.83;5.80;;;;;;;;;;6224753;28;20259;-91
2023/01/07 08:51:54;;;;;;;6.97;5.10;;;;;;;;;;6232043;28;20292;-91
2023/01/07 08:55:00;;;;;;;5.73;5.13;;;;;;;;;;6237212;28;20268;-90
2023/01/07 08:58:05;;;;;;;5.00;4.60;;;;;;;;;;6220499;28;20279;-91
2023/01/07 09:01:11;;;;;;;8.43;5.17;;;;;;;;;;6212465;28;20296;-91
2023/01/07 09:04:17;;;;;;;6.50;5.10;;;;;;;;;;6238325;28;20297;-89
2023/01/07 09:07:24;;;;;;;6.40;5.80;;;;;;;;;;6230840;28;20263;-90
2023/01/07 09:10:30;;;;;;;5.67;4.97;;;;;;;;;;6236546;28;20284;-90
2023/01/07 09:13:36;;;;;;;6.57;5.87;;;;;;;;;;6203967;28;20272;-90
2023/01/07 09:16:41;;;;;;;6.57;5.87;;;;;;;;;;6236983;28;20276;-89
2023/01/07 09:19:48;;;;;;;8.57;6.07;;;;;;;;;;6222648;28;20491;-89
2023/01/07 09:23:02;;;;;;;7.30;5.73;;;;;;;;;;6236452;28;20292;-88
2023/01/07 09:26:08;;;;;;;5.73;4.53;;;;;;;;;;6236413;28;20288;-90
2023/01/07 09:29:14;;;;;;;8.93;5.87;;;;;;;;;;6219622;28;20297;-91
2023/01/07 09:32:23;;;;;;;7.67;6.17;;;;;;;;;;6223276;28;20440;-89
2023/01/07 09:35:29;;;;;;;5.97;5.37;;;;;;;;;;6223956;28;20268;-90
2023/01/07 09:38:37;;;;;;;3.80;3.50;;;;;;;;;;6240987;28;20267;-88
2023/01/07 09:41:48;;;;;;;6.97;5.00;;;;;;;;;;6240420;28;20290;-90
2023/01/07 09:45:05;;;;;;;5.87;5.13;;;;;;;;;;6240244;28;20267;-90
2023/01/07 09:48:18;;;;;;;5.90;5.30;;;;;;;;;;6223696;28;20279;-88
2023/01/07 09:51:26;;;;;;;6.50;5.90;;;;;;;;;;6224102;28;20541;-89
2023/01/07 09:54:36;;;;;;;4.47;3.30;;;;;;;;;;6240936;28;20276;-88
2023/01/07 09:57:42;;;;;;;5.30;4.47;;;;;;;;;;6241051;28;20267;-89
2023/01/07 10:00:57;;;;;;;5.93;5.10;;;;;;;;;;6223694;28;20559;-89
2023/01/07 10:04:15;;;;;;;3.90;3.67;;;;;;;;;;6239422;28;20338;-89
2023/01/07 10:07:26;;;;;;;4.97;4.43;;;;;;;;;;6239844;28;20270;-88
2023/01/07 10:10:38;;;;;;;5.50;4.00;;;;;;;;;;6239658;28;20273;-89
2023/01/07 10:14:05;;;;;;;5.80;5.17;;;;;;;;;;6254921;28;20220;-90
2023/01/07 10:17:25;;;;;;;6.37;4.80;;;;;;;;;;6251115;28;20251;-89
2023/01/07 10:20:36;;;;;;;6.00;5.40;;;;;;;;;;6239324;28;20268;-89
2023/01/07 10:23:44;;;;;;;5.57;5.03;;;;;;;;;;6223575;28;20283;-90
2023/01/07 10:26:53;;;;;;;6.77;5.03;;;;;;;;;;6206731;28;20278;-90
2023/01/07 10:30:03;;;;;;;5.83;5.33;;;;;;;;;;6222755;28;20272;-90
2023/01/07 10:33:23;;;;;;;7.87;6.17;;;;;;;;;;6239145;28;20276;-90
2023/01/07 10:36:33;;;;;;;6.10;5.10;;;;;;;;;;6223137;28;20280;-90
2023/01/07 10:39:46;;;;;;;7.73;4.90;;;;;;;;;;6238872;28;20268;-89
2023/01/07 10:42:57;;;;;;;5.63;5.10;;;;;;;;;;6222494;28;20295;-88
2023/01/07 10:46:31;;;;;;;5.70;5.17;;;;;;;;;;6239180;28;20459;-88
2023/01/07 10:49:50;;;;;;;5.63;4.97;;;;;;;;;;6225698;28;20275;-88
2023/01/07 10:53:03;;;;;;;8.13;5.33;;;;;;;;;;6240309;28;20267;-88
2023/01/07 10:56:19;;;;;;;4.90;4.40;;;;;;;;;;6240227;28;20268;-89
2023/01/07 10:59:27;;;;;;;5.10;4.73;;;;;;;;;;6239652;28;20265;-89
2023/01/07 11:02:32;;;;;;;5.37;4.87;;;;;;;;;;6239546;28;20289;-88
2023/01/07 11:05:39;;;;;;;7.83;5.53;;;;;;;;;;6222657;28;20306;-89
2023/01/07 11:08:46;;;;;;;5.67;4.50;;;;;;;;;;6240740;28;20273;-89
2023/01/07 11:11:53;;;;;;;6.73;5.27;;;;;;;;;;6241249;28;20264;-89
2023/01/07 11:15:03;;;;;;;6.73;5.10;;;;;;;;;;6241560;28;20261;-89
2023/01/07 11:18:14;;;;;;;5.20;4.70;;;;;;;;;;6205145;28;20270;-90
2023/01/07 11:21:33;;;;;;;5.47;5.00;;;;;;;;;;6244461;28;20260;-91
2023/01/07 11:24:48;;;;;;;5.97;5.37;;;;;;;;;;6213017;28;20279;-88
2023/01/07 11:27:54;;;;;;;8.73;5.47;;;;;;;;;;6231797;28;20431;-89
2023/01/07 11:31:01;;;;;;;7.23;5.33;;;;;;;;;;6207490;28;20266;-90
2023/01/07 11:34:16;;;;;;;7.23;5.30;;;;;;;;;;6218377;28;20286;-90
2023/01/07 11:37:37;;;;;;;5.20;4.80;;;;;;;;;;6208684;28;20248;-90
2023/01/07 11:40:56;;;;;;;6.90;5.43;;;;;;;;;;6213874;28;20542;-91
2023/01/07 11:44:05;;;;;;;7.57;5.30;;;;;;;;;;6197087;28;20290;-90
2023/01/07 11:47:15;;;;;;;5.37;4.87;;;;;;;;;;6196871;28;20293;-90
2023/01/07 11:50:24;;;;;;;5.63;5.03;;;;;;;;;;6181616;28;20276;-88
2023/01/07 11:53:36;;;;;;;5.53;4.33;;;;;;;;;;6202254;28;20263;-88
2023/01/07 11:56:41;;;;;;;3.50;3.30;;;;;;;;;;6201190;28;20273;-91
2023/01/07 11:59:47;;;;;;;5.83;4.80;;;;;;;;;;6198043;28;20273;-88
2023/01/07 12:03:09;;;;;;;4.13;3.83;;;;;;;;;;6214713;28;20294;-91
2023/01/07 12:06:19;;;;;;;8.53;4.83;;;;;;;;;;6210526;28;20293;-90
2023/01/07 12:09:35;;;;;;;6.47;4.87;;;;;;;;;;6190161;28;20263;-91
2023/01/07 12:12:44;;;;;;;7.03;4.90;;;;;;;;;;6189104;28;20281;-91
2023/01/07 12:15:52;;;;;;;5.37;4.87;;;;;;;;;;6172370;28;20443;-91
2023/01/07 12:19:10;;;;;;;6.50;4.40;;;;;;;;;;6192105;28;20279;-90
2023/01/07 12:22:27;;;;;;;6.13;4.33;;;;;;;;;;6156131;28;20275;-91
2023/01/07 12:25:40;;;;;;;4.67;4.20;;;;;;;;;;6190916;28;20290;-91
2023/01/07 12:29:01;;;;;;;8.30;4.67;;;;;;;;;;6178284;28;20554;-91
2023/01/07 12:32:20;;;;;;;4.20;3.43;;;;;;;;;;6193735;28;20276;-91
2023/01/07 12:35:29;;;;;;;5.53;4.83;;;;;;;;;;6182539;28;20259;-89
2023/01/07 12:43:32;;;;;;;6.07;5.20;;;;;;;;;;6050041;29;20306;-90
2023/01/07 12:46:41;;;;;;;10.70;5.80;;;;;;;;;;6116346;29;20332;-90
2023/01/07 12:49:51;;;;;;;9.03;5.63;;;;;;;;;;6115462;29;20284;-90
2023/01/07 12:53:01;;;;;;;7.67;5.93;;;;;;;;;;6099980;29;20271;-91
2023/01/07 12:56:14;;;;;;;6.30;5.00;;;;;;;;;;6085495;29;20306;-90
2023/01/07 12:59:24;;;;;;;12.07;5.73;;;;;;;;;;6114257;28;20326;-91
2023/01/07 13:02:53;;;;;;;7.43;5.20;;;;;;;;;;6106040;29;20296;-89
2023/01/07 13:06:02;;;;;;;10.10;6.53;;;;;;;;;;6212943;28;20307;-90
2023/01/07 13:09:16;;;;;;;9.07;6.57;;;;;;;;;;6200405;28;20276;-91
2023/01/07 13:12:42;;;;;;;10.70;6.47;;;;;;;;;;6217637;28;20260;-90
2023/01/07 13:15:50;;;;;;;8.07;6.30;;;;;;;;;;6200422;28;20270;-91
2023/01/07 13:18:56;;;;;;;9.30;7.23;;;;;;;;;;6200231;28;20280;-91
2023/01/07 13:22:02;;;;;;;13.47;7.20;;;;;;;;;;6200137;28;20265;-89
2023/01/07 13:25:17;;;;;;;11.10;7.43;;;;;;;;;;6200089;28;20561;-88
2023/01/07 13:28:39;;;;;;;7.93;7.13;;;;;;;;;;6216144;28;20268;-89
2023/01/07 13:32:07;;;;;;;8.80;6.60;;;;;;;;;;6215677;28;20568;-89
2023/01/07 13:35:49;;;;;;;11.10;7.63;;;;;;;;;;6199312;28;20272;-88
2023/01/07 13:39:21;;;;;;;13.93;7.83;;;;;;;;;;6199187;28;20283;-89
2023/01/07 13:42:37;;;;;;;14.17;7.87;;;;;;;;;;6216500;28;20274;-89
2023/01/07 13:45:46;;;;;;;15.33;8.70;;;;;;;;;;6227216;28;20270;-90
2023/01/07 13:52:30;;;;;;;20.50;9.47;;;;;;;;;;6199081;28;20282;-89
2023/01/07 13:55:39;;;;;;;13.37;9.10;;;;;;;;;;6199069;28;20553;-89
2023/01/07 13:58:52;;;;;;;13.73;8.13;;;;;;;;;;6183646;28;20323;-88
2023/01/07 14:02:21;;;;;;;14.70;8.47;;;;;;;;;;6207197;28;20275;-89
2023/01/07 14:05:28;;;;;;;14.43;8.87;;;;;;;;;;6192916;28;20301;-89
2023/01/07 14:08:34;;;;;;;12.93;7.43;;;;;;;;;;6215222;28;20284;-90
2023/01/07 14:11:47;;;;;;;17.63;10.30;;;;;;;;;;6183314;28;20334;-89
2023/01/07 14:15:05;;;;;;;14.40;9.00;;;;;;;;;;6215215;28;20288;-90
2023/01/07 14:18:33;;;;;;;21.30;10.03;;;;;;;;;;6197980;28;20457;-88
2023/01/07 14:22:03;;;;;;;16.63;9.27;;;;;;;;;;6221404;28;20262;-89
2023/01/07 14:25:29;;;;;;;25.47;11.03;;;;;;;;;;6200793;28;20282;-89
2023/01/07 14:29:13;;;;;;;21.57;10.73;;;;;;;;;;6215203;28;20279;-89
2023/01/07 14:32:35;;;;;;;17.67;9.80;;;;;;;;;;6207053;28;20275;-89
2023/01/07 14:35:42;;;;;;;22.63;10.70;;;;;;;;;;6222639;28;20268;-90
2023/01/07 14:39:03;;;;;;;21.17;9.37;;;;;;;;;;6239836;28;20269;-89
2023/01/07 14:42:40;;;;;;;13.40;7.47;;;;;;;;;;6240496;28;20288;-89
2023/01/07 14:45:54;;;;;;;17.37;8.93;;;;;;;;;;6241509;28;20283;-88
2023/01/07 14:49:46;;;;;;;17.40;9.60;;;;;;;;;;6241203;28;20264;-89
2023/01/07 14:53:22;;;;;;;22.23;9.47;;;;;;;;;;6242063;28;20275;-88
2023/01/07 14:56:35;;;;;;;18.17;8.53;;;;;;;;;;6234519;28;20257;-89
2023/01/07 15:00:39;;;;;;;14.63;9.27;;;;;;;;;;6248490;28;20265;-88
2023/01/07 15:04:16;;;;;;;19.83;9.67;;;;;;;;;;6148246;28;20303;-90
2023/01/07 15:07:25;;;;;;;17.53;9.60;;;;;;;;;;6220767;28;20280;-90
2023/01/07 15:17:20;;;;;;;15.93;8.10;;;;;;;;;;6208750;28;20276;-88
2023/01/07 15:20:30;;;;;;;19.50;10.47;;;;;;;;;;6224105;28;20269;-88
2023/01/07 15:23:51;;;;;;;22.40;9.23;;;;;;;;;;6240889;28;20266;-90
2023/01/07 15:27:02;;;;;;;19.83;10.27;;;;;;;;;;6208215;28;20288;-90
2023/01/07 15:30:16;;;;;;;21.03;10.43;;;;;;;;;;6230543;28;20439;-91
2023/01/07 15:33:49;;;;;;;21.70;10.00;;;;;;;;;;6214141;28;20278;-90
2023/01/07 15:36:54;;;;;;;21.33;10.00;;;;;;;;;;6197220;28;20272;-90
2023/01/07 15:40:02;;;;;;;22.47;10.97;;;;;;;;;;6197228;28;20273;-90
2023/01/07 15:43:22;;;;;;;24.13;11.60;;;;;;;;;;6199992;28;20261;-89
2023/01/07 15:46:28;;;;;;;22.60;10.97;;;;;;;;;;6224896;28;20290;-88
2023/01/07 15:49:33;;;;;;;25.90;11.70;;;;;;;;;;6196592;28;20335;-88
2023/01/07 15:52:39;;;;;;;24.23;10.50;;;;;;;;;;6197996;28;20269;-89
2023/01/07 15:55:53;;;;;;;28.10;11.50;;;;;;;;;;6213707;28;20265;-88
2023/01/07 15:58:58;;;;;;;20.47;10.03;;;;;;;;;;6214478;28;20522;-89
2023/01/07 16:02:18;;;;;;;25.87;11.13;;;;;;;;;;6188985;28;20281;-89
2023/01/07 16:05:26;;;;;;;23.87;10.47;;;;;;;;;;6226782;28;20297;-89
2023/01/07 16:08:33;;;;;;;27.53;11.80;;;;;;;;;;6246107;28;20233;-88
2023/01/07 16:11:40;;;;;;;23.70;10.93;;;;;;;;;;6221117;28;20271;-88
2023/01/07 16:14:45;;;;;;;28.63;11.87;;;;;;;;;;6233537;28;20268;-88
2023/01/07 16:17:51;;;;;;;22.33;10.00;;;;;;;;;;6236469;28;20451;-88
2023/01/07 16:20:59;;;;;;;26.10;11.10;;;;;;;;;;6220668;28;20275;-90
2023/01/07 16:24:06;;;;;;;19.37;8.47;;;;;;;;;;6220221;28;20278;-91
2023/01/07 16:27:14;;;;;;;24.30;10.37;;;;;;;;;;6213472;28;20289;-90
2023/01/07 16:30:20;;;;;;;30.33;11.63;;;;;;;;;;6213939;28;20273;-90
2023/01/07 16:33:28;;;;;;;25.57;10.07;;;;;;;;;;6220487;28;20270;-91
2023/01/07 16:36:38;;;;;;;30.83;12.23;;;;;;;;;;6237222;28;20296;-90
2023/01/07 16:39:46;;;;;;;30.50;12.43;;;;;;;;;;6221532;28;20272;-90
2023/01/07 16:42:53;;;;;;;22.10;11.07;;;;;;;;;;6242159;28;20278;-89
2023/01/07 16:46:16;;;;;;;31.30;12.03;;;;;;;;;;6241823;28;20282;-89
2023/01/07 16:49:28;;;;;;;27.53;11.93;;;;;;;;;;6243330;28;20268;-90
2023/01/07 16:52:34;;;;;;;21.17;10.57;;;;;;;;;;6228347;28;20272;-90
2023/01/07 16:55:48;;;;;;;28.90;12.37;;;;;;;;;;6226894;28;20270;-90
2023/01/07 16:58:56;;;;;;;28.43;11.90;;;;;;;;;;6224748;28;20292;-89
2023/01/07 17:02:11;;;;;;;26.83;11.73;;;;;;;;;;6218515;28;20278;-90
2023/01/07 17:05:19;;;;;;;22.50;10.37;;;;;;;;;;6210787;28;20302;-90
2023/01/07 17:08:24;;;;;;;27.67;11.53;;;;;;;;;;6254054;28;20225;-91
2023/01/07 17:11:34;;;;;;;26.17;11.17;;;;;;;;;;6243593;28;20298;-91
2023/01/07 17:14:49;;;;;;;30.73;12.00;;;;;;;;;;6241212;28;20260;-90
2023/01/07 17:18:27;;;;;;;26.87;11.37;;;;;;;;;;6253035;28;20242;-88
2023/01/07 17:21:41;;;;;;;27.07;11.13;;;;;;;;;;6223656;28;20284;-88
2023/01/07 17:24:48;;;;;;;29.17;11.47;;;;;;;;;;6223100;28;20304;-89
2023/01/07 17:27:56;;;;;;;28.63;11.00;;;;;;;;;;6239872;28;20293;-89
2023/01/07 17:31:03;;;;;;;30.73;11.63;;;;;;;;;;6223581;28;20282;-90
2023/01/07 17:34:11;;;;;;;29.60;11.93;;;;;;;;;;6224321;28;20270;-90
2023/01/07 17:37:18;;;;;;;34.70;12.30;;;;;;;;;;6224737;28;20261;-89
2023/01/07 17:40:24;;;;;;;28.63;11.20;;;;;;;;;;6241458;28;20402;-89
2023/01/07 17:43:32;;;;;;;17.73;8.37;;;;;;;;;;6224418;28;20264;-89
2023/01/07 17:46:39;;;;;;;24.77;11.87;;;;;;;;;;6224422;28;20310;-90
2023/01/07 17:49:46;;;;;;;26.07;12.80;;;;;;;;;;6223755;28;20269;-90
2023/01/07 17:52:53;;;;;;;26.30;12.53;;;;;;;;;;6223027;28;20272;-92
2023/01/07 17:56:00;;;;;;;29.63;12.07;;;;;;;;;;6240682;28;20269;-88
2023/01/07 17:59:06;;;;;;;19.63;10.40;;;;;;;;;;6225141;28;20277;-88
2023/01/07 18:02:17;;;;;;;32.43;12.20;;;;;;;;;;6224643;28;20267;-88
2023/01/07 18:05:25;;;;;;;30.87;11.27;;;;;;;;;;6242206;28;20298;-89
2023/01/07 18:08:31;;;;;;;20.60;9.60;;;;;;;;;;6230026;28;20294;-89
2023/01/07 18:15:03;;;;;;;28.93;12.87;;;;;;;;;;6158778;28;20266;-89
2023/01/07 18:18:12;;;;;;;29.30;12.27;;;;;;;;;;6182454;28;20395;-88
2023/01/07 18:21:25;;;;;;;25.37;11.60;;;;;;;;;;6188417;28;20401;-89
2023/01/07 18:24:38;;;;;;;31.67;12.27;;;;;;;;;;6216416;28;20268;-89
2023/01/07 18:27:44;;;;;;;27.33;11.63;;;;;;;;;;6221649;28;20303;-90
2023/01/07 18:30:50;;;;;;;29.43;10.97;;;;;;;;;;6203598;28;20230;-88
2023/01/07 18:33:57;;;;;;;34.53;11.97;;;;;;;;;;6221748;28;20545;-88
2023/01/07 18:37:03;;;;;;;24.57;10.90;;;;;;;;;;6197275;28;20297;-88
2023/01/07 18:40:10;;;;;;;30.10;11.70;;;;;;;;;;6214425;28;20365;-88
2023/01/07 18:43:17;;;;;;;26.87;12.13;;;;;;;;;;6197360;28;20301;-87
2023/01/07 18:46:23;;;;;;;26.43;11.43;;;;;;;;;;6197335;28;20600;-88
2023/01/07 18:49:30;;;;;;;29.93;11.83;;;;;;;;;;6197974;28;20455;-87
2023/01/07 18:52:38;;;;;;;26.70;12.30;;;;;;;;;;6214128;28;20363;-87
2023/01/07 18:55:44;;;;;;;30.40;10.83;;;;;;;;;;6213715;28;20261;-87
2023/01/07 18:58:53;;;;;;;32.20;11.63;;;;;;;;;;6198190;28;20278;-87
2023/01/07 19:01:59;;;;;;;33.03;12.17;;;;;;;;;;6180782;28;20301;-87
2023/01/07 19:05:08;;;;;;;24.17;10.23;;;;;;;;;;6198261;28;20487;-87
2023/01/07 19:08:14;;;;;;;20.07;9.73;;;;;;;;;;6189671;28;20303;-87
2023/01/07 19:11:19;;;;;;;32.47;13.80;;;;;;;;;;6189234;28;20486;-87
2023/01/07 19:14:25;;;;;;;31.50;11.80;;;;;;;;;;6172772;28;20305;-87
2023/01/07 19:17:31;;;;;;;29.90;12.67;;;;;;;;;;6172436;28;20481;-87